Time;durP1;ratioP1;P1;durP2;ratioP2;P2;SDS_P1;SDS_P2;PMS_P1;PMS_P2;Temp;Humidity;BMP_temperature;BMP_pressure;BME280_temperature;BME280_humidity;BME280_pressure;Samples;Min_cycle;Max_cycle;Signal;HPM_P1;HPM_P2
2023/03/05 00:01:59;;;;;;;15.85;6.10;;;8.50;53.40;;;;;;4960858;28;20059;-85
2023/03/05 00:04:26;;;;;;;20.23;6.18;;;8.50;53.60;;;;;;4961136;28;20070;-85
2023/03/05 00:06:54;;;;;;;20.23;5.18;;;8.50;53.70;;;;;;4961195;28;20578;-85
2023/03/05 00:09:22;;;;;;;17.10;5.72;;;8.50;53.80;;;;;;4956524;28;20521;-87
2023/03/05 00:11:49;;;;;;;16.67;5.50;;;8.40;53.90;;;;;;4960197;28;20443;-86
2023/03/05 00:14:17;;;;;;;16.17;4.75;;;8.40;54.00;;;;;;4961635;28;20066;-87
2023/03/05 00:16:45;;;;;;;10.20;3.90;;;8.40;54.00;;;;;;4958831;28;20391;-87
2023/03/05 00:19:13;;;;;;;12.27;4.10;;;8.40;54.20;;;;;;4958746;28;20085;-86
2023/03/05 00:21:42;;;;;;;13.35;4.32;;;8.40;54.30;;;;;;4961660;28;20062;-86
2023/03/05 00:24:12;;;;;;;11.40;3.72;;;8.40;54.30;;;;;;4953261;28;20070;-87
2023/03/05 00:26:40;;;;;;;15.30;4.28;;;8.40;54.40;;;;;;4960752;28;20059;-86
2023/03/05 00:29:09;;;;;;;14.52;3.55;;;8.40;54.40;;;;;;4960673;28;20047;-86
2023/03/05 00:31:38;;;;;;;21.45;5.10;;;8.40;54.40;;;;;;4961328;28;20424;-86
2023/03/05 00:34:07;;;;;;;17.50;4.30;;;8.40;54.60;;;;;;4960037;28;20786;-87
2023/03/05 00:36:35;;;;;;;17.35;4.40;;;8.40;54.60;;;;;;4961682;28;20061;-86
2023/03/05 00:39:02;;;;;;;19.90;4.28;;;8.40;54.60;;;;;;4957574;28;20574;-86
2023/03/05 00:41:30;;;;;;;22.90;5.30;;;8.30;54.70;;;;;;4960141;28;20069;-86
2023/03/05 00:43:57;;;;;;;20.08;5.40;;;8.40;54.90;;;;;;4956808;28;20495;-87
2023/03/05 00:46:26;;;;;;;18.20;5.65;;;8.30;55.00;;;;;;4961239;28;20047;-85
2023/03/05 00:48:55;;;;;;;22.33;6.90;;;8.20;55.00;;;;;;4960422;28;20055;-86
2023/03/05 00:51:22;;;;;;;19.90;5.45;;;8.20;55.20;;;;;;4960120;28;20058;-86
2023/03/05 00:53:50;;;;;;;15.30;5.38;;;8.10;55.10;;;;;;4951605;28;20058;-87
2023/03/05 00:56:17;;;;;;;18.00;5.60;;;8.10;55.20;;;;;;4960738;28;20519;-88
2023/03/05 00:58:45;;;;;;;20.25;6.65;;;8.10;55.40;;;;;;4960891;28;20696;-85
2023/03/05 01:01:12;;;;;;;19.48;7.07;;;8.10;55.50;;;;;;4961072;28;20491;-86
2023/03/05 01:03:40;;;;;;;24.63;6.40;;;8.10;55.60;;;;;;4954022;28;20077;-86
2023/03/05 01:06:12;;;;;;;17.95;6.53;;;8.00;55.60;;;;;;4958621;28;20510;-87
2023/03/05 01:08:39;;;;;;;22.42;6.90;;;8.00;55.60;;;;;;4959266;28;20625;-86
2023/03/05 01:11:07;;;;;;;27.38;7.43;;;8.00;55.60;;;;;;4953330;28;20068;-87
2023/03/05 01:13:35;;;;;;;16.92;6.45;;;7.90;55.80;;;;;;4956865;28;20506;-87
2023/03/05 01:16:02;;;;;;;22.65;6.72;;;7.90;55.80;;;;;;4957723;28;20055;-86
2023/03/05 01:18:30;;;;;;;25.77;8.60;;;7.90;55.90;;;;;;4954819;28;20510;-87
2023/03/05 01:20:57;;;;;;;23.80;7.68;;;7.90;56.00;;;;;;4955418;28;20062;-87
2023/03/05 01:23:26;;;;;;;24.73;8.02;;;7.80;56.00;;;;;;4950014;28;20061;-86
2023/03/05 01:25:55;;;;;;;21.52;8.13;;;7.80;56.10;;;;;;4953531;28;20418;-86
2023/03/05 01:28:22;;;;;;;26.23;8.32;;;7.80;56.20;;;;;;4956408;28;20431;-87
2023/03/05 01:30:50;;;;;;;21.83;7.28;;;7.80;56.30;;;;;;4956181;28;20055;-88
2023/03/05 01:33:17;;;;;;;29.45;8.50;;;7.70;56.20;;;;;;4957249;28;20058;-86
2023/03/05 01:35:46;;;;;;;35.72;10.85;;;7.70;56.30;;;;;;4957526;28;20055;-86
2023/03/05 01:38:13;;;;;;;24.10;8.45;;;7.70;56.40;;;;;;4953653;28;20051;-86
2023/03/05 01:40:42;;;;;;;16.27;6.18;;;7.80;56.40;;;;;;4956981;28;20051;-87
2023/03/05 01:43:26;;;;;;;16.13;4.47;;;7.80;56.40;;;;;;4949252;28;20427;-86
2023/03/05 01:46:29;;;;;;;14.43;4.13;;;7.80;56.50;;;;;;4960349;28;20054;-86
2023/03/05 01:49:06;;;;;;;12.57;3.58;;;7.80;56.50;;;;;;4955880;28;20055;-86
2023/03/05 01:51:36;;;;;;;12.70;3.22;;;7.90;56.40;;;;;;4952029;28;20058;-86
2023/03/05 01:54:07;;;;;;;12.30;3.65;;;7.90;56.30;;;;;;4949815;28;20054;-87
2023/03/05 01:56:36;;;;;;;17.02;3.75;;;7.90;56.30;;;;;;4964886;28;20260;-87
2023/03/05 01:59:04;;;;;;;11.40;3.30;;;7.90;56.30;;;;;;4960503;28;20428;-85
2023/03/05 02:01:39;;;;;;;13.23;3.38;;;8.00;56.20;;;;;;4956943;28;20536;-87
2023/03/05 02:04:08;;;;;;;14.40;3.67;;;7.90;56.20;;;;;;4947525;28;20055;-87
2023/03/05 02:06:35;;;;;;;16.13;3.70;;;8.00;56.20;;;;;;4953664;28;20063;-86
2023/03/05 02:09:03;;;;;;;10.15;3.25;;;8.00;56.20;;;;;;4958341;28;20411;-86
2023/03/05 02:11:30;;;;;;;14.32;3.38;;;8.00;56.10;;;;;;4946633;28;20050;-86
2023/03/05 02:13:59;;;;;;;14.63;3.45;;;7.90;56.10;;;;;;4941056;28;20479;-87
2023/03/05 02:16:35;;;;;;;11.63;3.55;;;8.00;56.10;;;;;;4954530;28;20509;-91
2023/03/05 02:19:04;;;;;;;16.67;3.92;;;8.00;56.10;;;;;;4949499;28;20050;-89
2023/03/05 02:21:39;;;;;;;8.25;2.88;;;8.00;56.00;;;;;;4958659;28;20475;-91
2023/03/05 02:24:07;;;;;;;6.72;2.80;;;8.00;56.00;;;;;;4947167;28;20415;-86
2023/03/05 02:26:34;;;;;;;14.32;3.55;;;8.00;56.00;;;;;;4955029;28;20414;-86
2023/03/05 02:29:05;;;;;;;17.75;4.05;;;8.00;55.90;;;;;;4953480;28;20055;-87
2023/03/05 02:31:32;;;;;;;10.35;3.00;;;8.00;55.90;;;;;;4955052;28;20056;-86
2023/03/05 02:34:00;;;;;;;12.93;3.25;;;8.00;55.90;;;;;;4959202;28;20822;-86
2023/03/05 02:36:27;;;;;;;12.20;2.58;;;8.00;55.90;;;;;;4958844;28;20069;-86
2023/03/05 02:38:57;;;;;;;15.63;3.28;;;8.00;56.40;;;;;;4954320;28;20422;-86
2023/03/05 02:41:25;;;;;;;13.38;3.15;;;8.00;55.80;;;;;;4958517;28;20050;-86
2023/03/05 02:43:53;;;;;;;11.95;3.10;;;8.00;55.80;;;;;;4963514;28;20047;-87
2023/03/05 02:46:20;;;;;;;11.88;3.15;;;8.00;55.80;;;;;;4961168;28;20522;-86
2023/03/05 02:48:48;;;;;;;14.45;3.03;;;8.00;55.70;;;;;;4960246;28;20058;-86
2023/03/05 02:51:16;;;;;;;9.38;2.78;;;7.90;55.70;;;;;;4958940;28;20376;-86
2023/03/05 02:53:43;;;;;;;11.48;2.83;;;7.90;55.60;;;;;;4958595;28;20451;-86
2023/03/05 02:56:12;;;;;;;8.80;3.00;;;7.90;55.70;;;;;;4957659;28;20055;-86
2023/03/05 02:58:40;;;;;;;15.27;3.05;;;7.90;55.70;;;;;;4949940;28;20046;-85
2023/03/05 03:01:08;;;;;;;7.93;2.65;;;7.90;55.70;;;;;;4965446;28;20130;-86
2023/03/05 03:03:36;;;;;;;13.23;2.42;;;7.90;55.60;;;;;;4958950;28;20058;-87
2023/03/05 03:06:04;;;;;;;11.07;2.63;;;7.90;55.70;;;;;;4960757;28;20051;-86
2023/03/05 03:08:31;;;;;;;10.25;3.08;;;7.80;55.60;;;;;;4960465;28;20055;-87
2023/03/05 03:11:05;;;;;;;18.48;3.03;;;7.90;55.70;;;;;;4955510;28;20059;-86
2023/03/05 03:13:34;;;;;;;14.55;2.78;;;7.80;55.60;;;;;;4961403;28;20070;-86
2023/03/05 03:16:02;;;;;;;8.80;2.53;;;7.80;55.60;;;;;;4959046;28;20415;-86
2023/03/05 03:18:30;;;;;;;11.70;2.53;;;7.80;55.60;;;;;;4961375;28;20050;-86
2023/03/05 03:20:57;;;;;;;11.18;2.13;;;7.80;55.60;;;;;;4961808;28;20445;-86
2023/03/05 03:23:25;;;;;;;19.88;2.35;;;7.80;55.60;;;;;;4961389;28;20499;-86
2023/03/05 03:25:52;;;;;;;8.57;2.30;;;7.80;55.50;;;;;;4961308;28;20051;-86
2023/03/05 03:28:19;;;;;;;12.50;2.50;;;7.80;55.50;;;;;;4962555;28;20057;-86
2023/03/05 03:30:48;;;;;;;11.02;2.47;;;7.80;55.50;;;;;;4963080;28;20055;-86
2023/03/05 03:33:17;;;;;;;10.13;2.83;;;7.80;55.50;;;;;;4962996;28;20061;-86
2023/03/05 03:35:45;;;;;;;11.82;2.53;;;7.80;55.50;;;;;;4960623;28;20062;-86
2023/03/05 03:38:12;;;;;;;7.78;1.92;;;7.80;55.60;;;;;;4962282;28;20058;-86
2023/03/05 03:40:41;;;;;;;6.93;1.80;;;7.70;55.50;;;;;;4962408;28;20487;-86
2023/03/05 03:43:08;;;;;;;15.15;2.30;;;7.70;55.50;;;;;;4960387;28;20066;-87
2023/03/05 03:45:35;;;;;;;10.88;2.10;;;7.70;55.50;;;;;;4940337;28;20518;-86
2023/03/05 03:48:04;;;;;;;11.63;1.83;;;7.70;55.50;;;;;;4958791;28;20066;-87
2023/03/05 03:50:31;;;;;;;11.98;2.45;;;7.70;55.50;;;;;;4960698;28;20065;-86
2023/03/05 03:52:59;;;;;;;11.40;2.65;;;7.70;55.50;;;;;;4960500;28;20051;-86
2023/03/05 03:55:26;;;;;;;15.57;2.13;;;7.70;55.40;;;;;;4953667;28;20247;-87
2023/03/05 03:57:53;;;;;;;13.43;2.33;;;7.60;55.40;;;;;;4962874;28;20054;-86
2023/03/05 04:00:21;;;;;;;13.75;2.25;;;7.60;55.50;;;;;;4962052;28;20062;-86
2023/03/05 04:02:49;;;;;;;14.40;2.00;;;7.60;55.50;;;;;;4961190;28;20051;-86
2023/03/05 04:05:18;;;;;;;7.15;1.90;;;7.60;55.60;;;;;;4958418;28;20050;-86
2023/03/05 04:07:45;;;;;;;8.18;2.10;;;7.50;55.60;;;;;;4952970;28;20051;-86
2023/03/05 04:10:13;;;;;;;10.43;2.25;;;7.50;55.60;;;;;;4950356;28;20419;-86
2023/03/05 04:12:41;;;;;;;10.35;2.15;;;7.50;55.70;;;;;;4960801;28;20051;-86
2023/03/05 04:15:10;;;;;;;8.80;2.08;;;7.50;55.70;;;;;;4951100;28;20517;-86
2023/03/05 04:17:37;;;;;;;9.40;1.77;;;7.50;55.80;;;;;;4959384;28;20081;-86
2023/03/05 04:20:08;;;;;;;11.82;2.30;;;7.50;55.80;;;;;;4953843;28;20051;-86
2023/03/05 04:22:37;;;;;;;7.18;1.80;;;7.50;55.80;;;;;;4957479;28;20406;-87
2023/03/05 04:25:05;;;;;;;9.77;2.15;;;7.60;55.80;;;;;;4958116;28;20055;-86
2023/03/05 04:27:33;;;;;;;11.70;1.88;;;7.50;55.70;;;;;;4951211;28;20055;-86
2023/03/05 04:30:01;;;;;;;13.23;2.20;;;7.60;55.80;;;;;;4965214;28;20399;-86
2023/03/05 04:32:28;;;;;;;9.07;2.47;;;7.60;55.70;;;;;;4960062;28;20058;-85
2023/03/05 04:34:56;;;;;;;11.18;1.80;;;7.60;55.60;;;;;;4952730;28;20088;-86
2023/03/05 04:37:23;;;;;;;8.18;1.98;;;7.60;55.70;;;;;;4962854;28;20058;-87
2023/03/05 04:39:52;;;;;;;9.70;2.13;;;7.60;55.60;;;;;;4958409;28;20062;-86
2023/03/05 04:42:20;;;;;;;12.73;2.90;;;7.60;55.60;;;;;;4951908;28;20471;-86
2023/03/05 04:44:47;;;;;;;10.52;2.05;;;7.60;55.60;;;;;;4961636;28;20066;-86
2023/03/05 04:47:15;;;;;;;8.80;2.40;;;7.60;55.60;;;;;;4961395;28;20419;-86
2023/03/05 04:49:42;;;;;;;9.75;2.38;;;7.60;56.00;;;;;;4958294;28;20059;-86
2023/03/05 04:52:11;;;;;;;10.02;1.90;;;7.60;55.50;;;;;;4967711;28;20050;-86
2023/03/05 04:54:38;;;;;;;14.45;1.98;;;7.60;55.50;;;;;;4960745;28;20062;-86
2023/03/05 04:57:07;;;;;;;8.10;1.92;;;7.60;55.50;;;;;;4961963;28;20058;-87
2023/03/05 04:59:34;;;;;;;12.60;2.10;;;7.60;55.50;;;;;;4958352;28;20406;-86
2023/03/05 05:02:02;;;;;;;12.25;2.30;;;7.60;55.50;;;;;;4952980;28;20058;-86
2023/03/05 05:04:29;;;;;;;7.30;2.33;;;7.60;55.50;;;;;;4959864;28;20082;-86
2023/03/05 05:06:57;;;;;;;9.63;1.83;;;7.60;55.50;;;;;;4962436;28;20074;-86
2023/03/05 05:09:25;;;;;;;6.82;1.58;;;7.60;55.50;;;;;;4960978;28;20061;-86
2023/03/05 05:11:53;;;;;;;9.02;1.80;;;7.60;55.50;;;;;;4959770;28;20402;-86
2023/03/05 05:14:22;;;;;;;7.43;1.65;;;7.60;55.50;;;;;;4958380;28;20055;-86
2023/03/05 05:16:49;;;;;;;16.17;2.45;;;7.50;55.40;;;;;;4943732;28;20434;-87
2023/03/05 05:19:19;;;;;;;11.95;2.13;;;7.60;55.40;;;;;;4952342;28;20055;-89
2023/03/05 05:21:46;;;;;;;10.93;2.38;;;7.50;55.30;;;;;;4947022;28;21996;-86
2023/03/05 05:24:14;;;;;;;9.82;1.80;;;7.50;55.20;;;;;;4951205;28;20066;-87
2023/03/05 05:26:41;;;;;;;14.02;1.95;;;7.50;55.20;;;;;;4959849;28;20051;-88
2023/03/05 05:29:09;;;;;;;6.00;1.90;;;7.50;55.20;;;;;;4958555;28;20423;-87
2023/03/05 05:31:38;;;;;;;8.95;2.22;;;7.50;55.20;;;;;;4951694;28;20491;-87
2023/03/05 05:34:05;;;;;;;10.05;2.58;;;7.50;55.30;;;;;;4955021;28;20050;-87
2023/03/05 05:36:33;;;;;;;6.88;1.98;;;7.50;55.30;;;;;;4957540;28;20689;-88
2023/03/05 05:39:00;;;;;;;11.48;2.47;;;7.50;55.30;;;;;;4951685;28;20684;-90
2023/03/05 05:41:27;;;;;;;9.32;2.65;;;7.50;55.30;;;;;;4955520;28;20057;-87
2023/03/05 05:43:54;;;;;;;9.02;2.65;;;7.50;55.20;;;;;;4955493;28;20055;-87
2023/03/05 05:46:23;;;;;;;6.25;2.13;;;7.50;55.20;;;;;;4960920;28;20055;-87
2023/03/05 05:48:52;;;;;;;13.18;2.72;;;7.50;55.10;;;;;;4955834;28;20057;-86
2023/03/05 05:51:22;;;;;;;8.82;1.98;;;7.50;55.60;;;;;;4949102;28;20504;-87
2023/03/05 05:53:50;;;;;;;9.15;2.90;;;7.50;55.10;;;;;;4956939;28;20053;-88
2023/03/05 05:56:18;;;;;;;12.25;2.85;;;7.50;55.10;;;;;;4948546;28;20058;-87
2023/03/05 05:58:47;;;;;;;9.85;2.08;;;7.50;55.10;;;;;;4957385;28;20063;-86
2023/03/05 06:01:17;;;;;;;11.45;2.30;;;7.50;55.00;;;;;;4954726;28;20062;-87
2023/03/05 06:03:44;;;;;;;8.50;2.13;;;7.50;55.00;;;;;;4954703;28;20059;-87
2023/03/05 06:06:15;;;;;;;8.68;1.92;;;7.50;55.00;;;;;;4952303;28;20506;-90
2023/03/05 06:08:43;;;;;;;10.40;2.50;;;7.50;55.50;;;;;;4949110;28;20503;-88
2023/03/05 06:11:11;;;;;;;11.45;2.63;;;7.40;54.90;;;;;;4952418;28;20431;-88
2023/03/05 06:13:39;;;;;;;7.43;1.83;;;7.40;54.90;;;;;;4952541;28;20058;-87
2023/03/05 06:16:10;;;;;;;11.32;2.50;;;7.50;54.90;;;;;;4943848;28;20056;-88
2023/03/05 06:18:37;;;;;;;7.45;1.90;;;7.40;54.90;;;;;;4952817;28;20062;-89
2023/03/05 06:21:07;;;;;;;7.28;2.05;;;7.40;54.90;;;;;;4952152;28;20077;-86
2023/03/05 06:23:36;;;;;;;9.18;2.05;;;7.40;54.90;;;;;;4945485;28;20137;-87
2023/03/05 06:26:06;;;;;;;6.75;2.05;;;7.40;55.00;;;;;;4959462;28;20058;-87
2023/03/05 06:28:34;;;;;;;7.70;1.98;;;7.40;55.00;;;;;;4965750;28;20058;-87
2023/03/05 06:31:02;;;;;;;5.97;2.05;;;7.40;55.10;;;;;;4950206;28;20065;-87
2023/03/05 06:33:29;;;;;;;7.20;2.13;;;7.40;55.00;;;;;;4952721;28;20050;-85
2023/03/05 06:35:57;;;;;;;7.22;1.92;;;7.40;55.00;;;;;;4955592;28;20517;-88
2023/03/05 06:38:24;;;;;;;9.93;2.15;;;7.40;55.00;;;;;;4958595;28;20067;-89
2023/03/05 06:40:53;;;;;;;14.20;2.42;;;7.40;55.00;;;;;;4941720;28;20070;-88
2023/03/05 06:43:20;;;;;;;4.05;1.63;;;7.40;55.10;;;;;;4951119;28;20065;-88
2023/03/05 06:45:48;;;;;;;9.77;2.55;;;7.40;55.00;;;;;;4958430;28;20053;-87
2023/03/05 06:48:15;;;;;;;13.18;2.38;;;7.40;55.00;;;;;;4958879;28;20058;-88
2023/03/05 06:50:42;;;;;;;10.32;1.90;;;7.40;55.00;;;;;;4956516;28;20055;-88
2023/03/05 06:53:10;;;;;;;10.85;2.15;;;7.40;55.00;;;;;;4956049;28;20058;-87
2023/03/05 06:55:38;;;;;;;9.93;2.00;;;7.40;55.00;;;;;;4954619;28;20058;-87
2023/03/05 06:58:08;;;;;;;17.15;2.58;;;7.40;55.00;;;;;;4952508;28;20051;-87
2023/03/05 07:00:35;;;;;;;8.68;2.20;;;7.40;55.00;;;;;;4955682;28;20047;-87
2023/03/05 07:03:02;;;;;;;10.20;2.25;;;7.40;55.00;;;;;;4949983;28;20051;-86
2023/03/05 07:05:30;;;;;;;13.68;2.33;;;7.40;55.10;;;;;;4958795;28;20155;-88
2023/03/05 07:07:57;;;;;;;8.07;2.17;;;7.40;55.10;;;;;;4960867;28;20055;-89
2023/03/05 07:10:24;;;;;;;6.03;2.10;;;7.40;55.10;;;;;;4957195;28;20249;-90
2023/03/05 07:12:51;;;;;;;12.05;2.53;;;7.40;55.20;;;;;;4952837;28;20047;-91
2023/03/05 07:15:20;;;;;;;11.55;2.67;;;7.40;55.20;;;;;;4964108;28;20051;-89
2023/03/05 07:17:47;;;;;;;8.77;2.35;;;7.40;55.20;;;;;;4948336;28;20057;-89
2023/03/05 07:20:15;;;;;;;9.15;2.45;;;7.40;55.20;;;;;;4961855;28;20503;-84
2023/03/05 07:22:42;;;;;;;9.40;2.40;;;7.40;55.20;;;;;;4954483;28;20082;-86
2023/03/05 07:25:10;;;;;;;7.22;2.40;;;7.40;55.20;;;;;;4946039;28;20062;-87
2023/03/05 07:27:38;;;;;;;9.27;2.47;;;7.40;55.20;;;;;;4955077;28;20401;-87
2023/03/05 07:30:07;;;;;;;7.38;2.13;;;7.40;55.20;;;;;;4954874;28;20054;-88
2023/03/05 07:32:36;;;;;;;4.22;1.90;;;7.40;55.30;;;;;;4952785;28;20058;-85
2023/03/05 07:35:04;;;;;;;10.88;2.20;;;7.40;55.30;;;;;;4957177;28;20050;-87
2023/03/05 07:37:31;;;;;;;12.82;2.28;;;7.40;55.30;;;;;;4950831;28;20059;-87
2023/03/05 07:39:59;;;;;;;9.45;2.30;;;7.40;55.40;;;;;;4945259;28;20388;-82
2023/03/05 07:42:26;;;;;;;12.75;3.03;;;7.40;55.30;;;;;;4956429;28;20127;-87
2023/03/05 07:44:53;;;;;;;11.02;2.33;;;7.50;55.40;;;;;;4955846;28;20399;-83
2023/03/05 07:47:22;;;;;;;13.85;2.60;;;7.50;55.40;;;;;;4951803;28;20054;-85
2023/03/05 07:49:51;;;;;;;9.20;2.33;;;7.50;55.40;;;;;;4946313;28;20058;-90
2023/03/05 07:52:18;;;;;;;13.38;2.83;;;7.50;55.40;;;;;;4951555;28;20054;-90
2023/03/05 07:54:45;;;;;;;7.95;2.22;;;7.50;55.50;;;;;;4948312;28;20057;-92
2023/03/05 07:57:15;;;;;;;11.40;2.47;;;7.50;55.50;;;;;;4953735;28;20055;-91
2023/03/05 07:59:42;;;;;;;15.10;2.40;;;7.50;55.60;;;;;;4956672;28;20062;-92
2023/03/05 08:02:10;;;;;;;8.90;2.70;;;7.50;55.50;;;;;;4938306;28;20054;-90
2023/03/05 08:04:41;;;;;;;13.52;2.60;;;7.50;55.60;;;;;;4956625;28;20513;-88
2023/03/05 08:07:10;;;;;;;9.52;2.30;;;7.50;55.60;;;;;;4957635;28;20419;-87
2023/03/05 08:09:41;;;;;;;11.45;2.80;;;7.60;55.60;;;;;;4957254;28;20058;-92
2023/03/05 08:12:10;;;;;;;9.20;2.63;;;7.60;55.60;;;;;;4957085;28;20066;-91
2023/03/05 08:14:38;;;;;;;12.07;2.40;;;7.60;55.60;;;;;;4950742;28;20507;-93
2023/03/05 08:17:07;;;;;;;10.95;3.00;;;7.60;55.60;;;;;;4955401;28;20058;-92
2023/03/05 08:19:38;;;;;;;13.73;2.80;;;7.70;55.60;;;;;;4955490;28;20063;-89
2023/03/05 08:22:06;;;;;;;9.40;2.70;;;7.70;55.60;;;;;;4951599;28;20055;-90
2023/03/05 08:24:37;;;;;;;6.78;2.85;;;7.70;56.00;;;;;;4949695;28;20055;-92
2023/03/05 08:27:04;;;;;;;11.13;3.15;;;7.70;55.60;;;;;;4950301;28;20070;-93
2023/03/05 08:29:32;;;;;;;7.75;2.90;;;7.80;55.60;;;;;;4947969;28;20059;-91
2023/03/05 08:31:59;;;;;;;10.63;2.70;;;7.80;55.60;;;;;;4953804;28;20533;-90
2023/03/05 08:34:27;;;;;;;14.52;2.80;;;7.80;55.60;;;;;;4956103;28;20063;-91
2023/03/05 08:36:56;;;;;;;11.40;2.97;;;7.80;55.50;;;;;;4945292;28;20513;-93
2023/03/05 08:39:23;;;;;;;8.18;2.85;;;7.90;55.50;;;;;;4937449;28;20051;-90
2023/03/05 08:41:53;;;;;;;9.15;2.70;;;7.90;55.50;;;;;;4942584;28;20085;-90
2023/03/05 08:44:20;;;;;;;12.57;2.72;;;7.90;55.50;;;;;;4954753;28;20065;-92
2023/03/05 08:46:48;;;;;;;16.05;3.28;;;8.00;55.50;;;;;;4956575;28;20070;-90
2023/03/05 08:49:15;;;;;;;9.32;2.42;;;8.00;55.40;;;;;;4947435;28;20055;-90
2023/03/05 08:51:43;;;;;;;10.82;3.00;;;8.00;55.30;;;;;;4958030;28;20499;-86
2023/03/05 08:54:11;;;;;;;11.40;3.30;;;8.00;55.20;;;;;;4952585;28;20058;-91
2023/03/05 08:56:39;;;;;;;9.88;3.38;;;8.10;55.10;;;;;;4949676;28;20150;-91
2023/03/05 08:59:08;;;;;;;13.63;3.35;;;8.10;55.00;;;;;;4942901;28;20055;-89
2023/03/05 09:01:46;;;;;;;13.15;3.03;;;8.10;55.00;;;;;;4945426;28;20051;-91
2023/03/05 09:04:14;;;;;;;12.40;3.10;;;8.20;55.10;;;;;;4948617;28;20511;-92
2023/03/05 09:06:44;;;;;;;7.55;2.78;;;8.10;55.00;;;;;;4951884;28;20055;-92
2023/03/05 09:09:12;;;;;;;11.93;3.13;;;8.20;55.00;;;;;;4951812;28;20051;-92
2023/03/05 09:11:40;;;;;;;10.05;3.28;;;8.20;54.80;;;;;;4957494;28;20054;-92
2023/03/05 09:14:12;;;;;;;17.95;3.75;;;8.20;54.20;;;;;;4946141;28;20051;-92
2023/03/05 09:16:45;;;;;;;16.80;3.88;;;8.20;53.90;;;;;;4949411;28;20059;-92
2023/03/05 09:22:19;;;;;;;6.53;3.17;;;8.20;54.00;;;;;;4950813;28;20081;-91
2023/03/05 09:24:47;;;;;;;19.42;4.10;;;8.20;54.10;;;;;;4951081;28;20077;-88
2023/03/05 09:27:15;;;;;;;13.02;2.83;;;8.20;54.10;;;;;;4949208;28;20058;-89
2023/03/05 09:29:56;;;;;;;9.68;2.95;;;8.20;53.90;;;;;;4954480;28;20396;-90
2023/03/05 09:32:23;;;;;;;11.05;2.78;;;8.20;53.70;;;;;;4947421;28;20067;-88
2023/03/05 09:34:50;;;;;;;14.23;3.05;;;8.20;53.80;;;;;;4955789;28;20055;-89
2023/03/05 09:37:18;;;;;;;13.60;3.03;;;8.20;53.80;;;;;;4944699;28;20047;-93
2023/03/05 09:39:45;;;;;;;12.27;3.38;;;8.20;53.80;;;;;;4954698;28;20054;-92
2023/03/05 09:43:15;;;;;;;12.50;3.47;;;8.20;53.80;;;;;;4953380;28;20042;-94
2023/03/05 09:45:55;;;;;;;11.40;3.05;;;8.20;53.70;;;;;;4931763;28;20487;-93
2023/03/05 09:48:26;;;;;;;14.73;3.53;;;8.20;53.70;;;;;;4948150;28;20411;-86
2023/03/05 09:51:02;;;;;;;10.00;3.10;;;8.20;53.70;;;;;;4952262;28;20514;-87
2023/03/05 09:53:40;;;;;;;5.40;2.75;;;8.20;53.60;;;;;;4956206;23;20058;-88
2023/03/05 09:56:13;;;;;;;11.93;2.90;;;8.30;53.60;;;;;;4947742;28;20486;-88
2023/03/05 09:58:59;;;;;;;13.25;3.10;;;8.30;53.70;;;;;;4954989;28;20418;-88
2023/03/05 10:01:33;;;;;;;9.90;3.30;;;8.30;53.60;;;;;;4956342;28;20513;-87
2023/03/05 10:04:04;;;;;;;;;;;8.30;53.60;;;;;;4948603;28;20066;-87
2023/03/05 10:06:43;;;;;;;12.77;4.07;;;8.40;53.70;;;;;;4941165;28;19922;-86
2023/03/05 10:09:28;;;;;;;12.73;3.22;;;8.40;53.50;;;;;;4938093;28;20400;-87
2023/03/05 10:12:11;;;;;;;18.63;4.10;;;8.40;53.40;;;;;;4938942;28;20051;-87
2023/03/05 10:14:46;;;;;;;15.55;4.30;;;8.40;53.30;;;;;;4938686;28;20383;-87
2023/03/05 10:17:48;;;;;;;15.20;3.90;;;8.40;53.30;;;;;;4938486;28;20051;-86
2023/03/05 10:20:37;;;;;;;14.30;3.70;;;8.40;53.30;;;;;;4925275;28;20059;-87
2023/03/05 10:23:28;;;;;;;16.08;4.05;;;8.40;53.40;;;;;;4940819;28;20479;-87
2023/03/05 10:26:06;;;;;;;14.88;3.88;;;8.40;53.40;;;;;;4944060;28;20408;-86
2023/03/05 10:28:47;;;;;;;10.82;4.10;;;8.40;53.40;;;;;;4946558;28;20515;-86
2023/03/05 10:31:37;;;;;;;11.32;3.80;;;8.40;53.50;;;;;;4955212;28;20406;-87
2023/03/05 10:34:30;;;;;;;12.20;3.65;;;8.40;53.50;;;;;;4942703;28;20070;-86
2023/03/05 10:37:17;;;;;;;13.63;4.03;;;8.40;53.70;;;;;;4942541;28;20062;-86
2023/03/05 10:40:12;;;;;;;13.00;4.50;;;8.40;53.70;;;;;;4942332;28;20487;-86
2023/03/05 10:42:48;;;;;;;13.93;4.38;;;8.50;53.70;;;;;;4942590;28;20043;-87
2023/03/05 10:45:29;;;;;;;16.48;4.18;;;8.40;53.70;;;;;;4944179;28;20051;-87
2023/03/05 10:48:01;;;;;;;14.57;4.47;;;8.40;53.70;;;;;;4943383;28;20074;-86
2023/03/05 10:50:35;;;;;;;8.38;3.65;;;8.50;53.90;;;;;;4941872;28;20168;-87
2023/03/05 10:53:23;;;;;;;11.45;4.15;;;8.50;54.10;;;;;;4940424;28;20427;-86
2023/03/05 10:55:55;;;;;;;11.27;4.25;;;8.50;54.10;;;;;;4938025;28;20062;-87
2023/03/05 10:58:24;;;;;;;8.63;3.60;;;8.50;53.90;;;;;;4941402;28;20051;-87
2023/03/05 11:01:00;;;;;;;8.95;4.03;;;8.60;53.80;;;;;;4943873;28;20059;-86
2023/03/05 11:03:51;;;;;;;13.10;3.97;;;8.70;53.70;;;;;;4944489;28;20499;-89
2023/03/05 11:06:34;;;;;;;10.15;3.88;;;8.70;53.30;;;;;;4941722;28;20055;-86
2023/03/05 11:09:25;;;;;;;14.43;4.60;;;8.70;53.10;;;;;;4936251;28;20515;-86
2023/03/05 11:12:20;;;;;;;10.20;4.40;;;8.80;52.90;;;;;;4937856;28;20043;-86
2023/03/05 11:15:01;;;;;;;;;;;8.80;52.70;;;;;;4944178;28;20066;-86
2023/03/05 11:17:37;;;;;;;8.90;3.58;;;8.80;52.60;;;;;;4945837;28;19930;-90
2023/03/05 11:20:31;;;;;;;9.10;3.58;;;8.80;52.40;;;;;;4942208;28;20059;-87
2023/03/05 11:23:12;;;;;;;13.05;3.67;;;8.80;52.50;;;;;;4945675;28;20061;-86
2023/03/05 11:26:01;;;;;;;8.68;3.22;;;8.70;52.50;;;;;;4946151;28;20054;-87
2023/03/05 11:28:32;;;;;;;14.00;3.85;;;8.70;52.70;;;;;;4942247;28;20234;-86
2023/03/05 11:31:16;;;;;;;10.85;3.45;;;8.70;52.60;;;;;;4946712;28;20059;-86
2023/03/05 11:33:57;;;;;;;8.45;2.85;;;8.60;52.60;;;;;;4942980;28;20055;-87
2023/03/05 11:36:34;;;;;;;7.38;2.47;;;8.60;52.90;;;;;;4943560;28;20051;-87
2023/03/05 11:39:16;;;;;;;11.88;2.85;;;8.50;52.80;;;;;;4945137;28;20063;-86
2023/03/05 11:41:48;;;;;;;10.27;3.10;;;8.50;53.00;;;;;;4948683;28;20062;-86
2023/03/05 11:44:23;;;;;;;8.82;3.47;;;8.40;53.10;;;;;;4942710;28;20059;-87
2023/03/05 11:46:56;;;;;;;8.38;2.80;;;8.40;53.00;;;;;;4943588;28;20660;-86
2023/03/05 11:49:28;;;;;;;5.97;2.33;;;8.40;53.20;;;;;;4951488;28;20077;-86
2023/03/05 11:52:07;;;;;;;13.30;3.58;;;8.40;53.30;;;;;;4944173;28;20058;-85
2023/03/05 11:54:42;;;;;;;13.25;3.78;;;8.40;53.50;;;;;;4942302;28;20047;-86
2023/03/05 11:57:14;;;;;;;13.00;3.22;;;8.30;53.40;;;;;;4943422;28;20503;-86
2023/03/05 11:59:43;;;;;;;9.35;3.50;;;8.30;53.40;;;;;;4946559;28;20059;-86
2023/03/05 12:02:19;;;;;;;10.70;3.97;;;8.30;54.10;;;;;;4945103;28;20055;-86
2023/03/05 12:04:47;;;;;;;12.70;3.30;;;8.30;53.70;;;;;;4938503;28;20232;-87
2023/03/05 12:07:19;;;;;;;12.18;3.70;;;8.20;53.80;;;;;;4949015;28;20078;-87
2023/03/05 12:09:50;;;;;;;10.98;4.20;;;8.20;54.10;;;;;;4943168;28;20059;-87
2023/03/05 12:12:34;;;;;;;12.30;4.20;;;8.10;54.30;;;;;;4951161;28;20483;-87
2023/03/05 12:15:30;;;;;;;15.13;4.82;;;8.10;54.40;;;;;;4944841;28;20055;-87
2023/03/05 12:18:07;;;;;;;10.85;4.15;;;8.00;54.50;;;;;;4943653;28;20492;-86
2023/03/05 12:20:46;;;;;;;11.02;4.55;;;8.00;54.60;;;;;;4943550;28;20054;-90
2023/03/05 12:23:16;;;;;;;9.98;4.60;;;8.00;54.70;;;;;;4942866;28;20051;-87
2023/03/05 12:25:50;;;;;;;11.02;4.63;;;8.00;54.70;;;;;;4943816;28;20062;-87
2023/03/05 12:28:56;;;;;;;15.32;5.63;;;8.00;54.90;;;;;;4942579;28;20054;-87
2023/03/05 12:31:34;;;;;;;10.32;5.35;;;7.90;54.90;;;;;;4940527;28;20912;-87
2023/03/05 12:34:45;;;;;;;11.35;5.22;;;7.90;54.90;;;;;;4945694;28;20789;-87
2023/03/05 12:37:54;;;;;;;8.65;4.63;;;7.90;54.90;;;;;;4947273;28;20058;-87
2023/03/05 12:40:24;;;;;;;9.60;4.57;;;7.90;54.90;;;;;;4925020;28;20066;-87
2023/03/05 12:43:03;;;;;;;10.93;4.95;;;7.90;55.00;;;;;;4941541;28;20047;-88
2023/03/05 12:45:37;;;;;;;11.63;6.03;;;8.00;55.10;;;;;;4945941;28;20054;-87
2023/03/05 12:48:43;;;;;;;13.43;5.97;;;8.00;55.10;;;;;;4945158;28;20058;-87
2023/03/05 12:51:32;;;;;;;11.23;6.07;;;8.10;55.00;;;;;;4942158;28;20062;-87
2023/03/05 12:54:31;;;;;;;10.60;6.10;;;8.10;55.10;;;;;;4942214;28;20070;-86
2023/03/05 12:57:03;;;;;;;12.70;6.13;;;8.10;55.10;;;;;;4945223;28;20050;-89
2023/03/05 12:59:46;;;;;;;10.88;7.00;;;8.20;55.00;;;;;;4951253;28;20089;-88
2023/03/05 13:02:24;;;;;;;16.42;6.50;;;8.20;55.00;;;;;;4943792;28;20066;-89
2023/03/05 13:07:51;;;;;;;14.10;7.13;;;8.20;54.90;;;;;;4967170;23;20089;-92
2023/03/05 13:10:25;;;;;;;10.98;6.07;;;8.20;54.90;;;;;;4955072;28;20428;-89
2023/03/05 13:13:01;;;;;;;12.40;6.68;;;8.20;55.10;;;;;;4961201;28;20574;-86
2023/03/05 13:15:32;;;;;;;15.20;6.78;;;8.20;55.10;;;;;;4966971;28;20055;-87
2023/03/05 13:18:02;;;;;;;15.05;7.63;;;8.20;55.10;;;;;;4959245;28;20431;-86
2023/03/05 13:20:36;;;;;;;11.00;6.75;;;8.20;55.50;;;;;;4951092;28;20210;-86